sensor_id;sensor_type;location;lat;lon;timestamp;P1;durP1;ratioP1;P2;durP2;ratioP2
10657;SDS011;5377;43.276;26.930;2023-02-14T00:00:00;57.47;;;37.13;;
10657;SDS011;5377;43.276;26.930;2023-02-14T00:02:27;56.20;;;34.07;;
10657;SDS011;5377;43.276;26.930;2023-02-14T00:04:54;59.47;;;35.63;;
10657;SDS011;5377;43.276;26.930;2023-02-14T00:07:21;57.87;;;37.17;;
10657;SDS011;5377;43.276;26.930;2023-02-14T00:09:48;62.13;;;39.40;;
10657;SDS011;5377;43.276;26.930;2023-02-14T00:12:15;52.47;;;33.27;;
10657;SDS011;5377;43.276;26.930;2023-02-14T00:14:43;58.47;;;35.70;;
10657;SDS011;5377;43.276;26.930;2023-02-14T00:17:27;54.97;;;37.57;;
10657;SDS011;5377;43.276;26.930;2023-02-14T00:19:54;55.43;;;35.73;;
10657;SDS011;5377;43.276;26.930;2023-02-14T00:22:21;57.90;;;35.47;;
10657;SDS011;5377;43.276;26.930;2023-02-14T00:24:48;59.50;;;36.90;;
10657;SDS011;5377;43.276;26.930;2023-02-14T00:27:14;55.13;;;34.97;;
10657;SDS011;5377;43.276;26.930;2023-02-14T00:29:43;52.67;;;33.87;;
10657;SDS011;5377;43.276;26.930;2023-02-14T00:32:09;55.43;;;34.47;;
10657;SDS011;5377;43.276;26.930;2023-02-14T00:34:36;52.97;;;32.97;;
10657;SDS011;5377;43.276;26.930;2023-02-14T00:37:05;46.93;;;32.57;;
10657;SDS011;5377;43.276;26.930;2023-02-14T00:39:32;54.80;;;33.53;;
10657;SDS011;5377;43.276;26.930;2023-02-14T00:41:58;55.67;;;34.37;;
10657;SDS011;5377;43.276;26.930;2023-02-14T00:44:25;50.67;;;33.47;;
10657;SDS011;5377;43.276;26.930;2023-02-14T00:46:54;56.67;;;35.83;;
10657;SDS011;5377;43.276;26.930;2023-02-14T00:49:20;47.50;;;33.40;;
10657;SDS011;5377;43.276;26.930;2023-02-14T00:51:47;57.07;;;34.50;;
10657;SDS011;5377;43.276;26.930;2023-02-14T00:54:14;58.70;;;34.43;;
10657;SDS011;5377;43.276;26.930;2023-02-14T00:56:41;59.53;;;38.03;;
10657;SDS011;5377;43.276;26.930;2023-02-14T00:59:08;53.27;;;33.77;;
10657;SDS011;5377;43.276;26.930;2023-02-14T01:01:35;56.07;;;36.00;;
10657;SDS011;5377;43.276;26.930;2023-02-14T01:04:03;58.80;;;37.60;;
10657;SDS011;5377;43.276;26.930;2023-02-14T01:06:30;56.13;;;36.80;;
10657;SDS011;5377;43.276;26.930;2023-02-14T01:08:57;59.43;;;37.50;;
10657;SDS011;5377;43.276;26.930;2023-02-14T01:11:23;61.50;;;36.93;;
10657;SDS011;5377;43.276;26.930;2023-02-14T01:13:51;60.07;;;35.40;;
10657;SDS011;5377;43.276;26.930;2023-02-14T01:16:21;63.17;;;38.33;;
10657;SDS011;5377;43.276;26.930;2023-02-14T01:18:49;57.07;;;34.23;;
10657;SDS011;5377;43.276;26.930;2023-02-14T01:21:19;56.00;;;34.53;;
10657;SDS011;5377;43.276;26.930;2023-02-14T01:23:48;56.17;;;36.70;;
10657;SDS011;5377;43.276;26.930;2023-02-14T01:26:16;56.97;;;35.50;;
10657;SDS011;5377;43.276;26.930;2023-02-14T01:28:44;54.37;;;35.03;;
10657;SDS011;5377;43.276;26.930;2023-02-14T01:31:12;55.50;;;34.70;;
10657;SDS011;5377;43.276;26.930;2023-02-14T01:33:44;51.97;;;35.43;;
10657;SDS011;5377;43.276;26.930;2023-02-14T01:36:16;53.53;;;35.70;;
10657;SDS011;5377;43.276;26.930;2023-02-14T01:38:45;57.20;;;36.53;;
10657;SDS011;5377;43.276;26.930;2023-02-14T01:41:12;61.10;;;36.97;;
10657;SDS011;5377;43.276;26.930;2023-02-14T01:43:49;63.70;;;38.60;;
10657;SDS011;5377;43.276;26.930;2023-02-14T01:46:17;53.47;;;34.70;;
10657;SDS011;5377;43.276;26.930;2023-02-14T01:48:44;53.40;;;33.70;;
10657;SDS011;5377;43.276;26.930;2023-02-14T01:51:12;56.27;;;34.23;;
10657;SDS011;5377;43.276;26.930;2023-02-14T01:53:43;53.07;;;34.00;;
10657;SDS011;5377;43.276;26.930;2023-02-14T01:56:11;50.83;;;32.83;;
10657;SDS011;5377;43.276;26.930;2023-02-14T01:58:43;56.40;;;33.63;;
10657;SDS011;5377;43.276;26.930;2023-02-14T02:01:12;57.50;;;36.43;;
10657;SDS011;5377;43.276;26.930;2023-02-14T02:03:42;54.37;;;35.03;;
10657;SDS011;5377;43.276;26.930;2023-02-14T02:06:14;54.50;;;34.27;;
10657;SDS011;5377;43.276;26.930;2023-02-14T02:08:47;61.63;;;36.60;;
10657;SDS011;5377;43.276;26.930;2023-02-14T02:11:19;52.97;;;33.23;;
10657;SDS011;5377;43.276;26.930;2023-02-14T02:13:46;57.20;;;35.63;;
10657;SDS011;5377;43.276;26.930;2023-02-14T02:16:18;54.97;;;34.97;;
10657;SDS011;5377;43.276;26.930;2023-02-14T02:18:56;55.17;;;35.07;;
10657;SDS011;5377;43.276;26.930;2023-02-14T02:21:46;58.13;;;36.03;;
10657;SDS011;5377;43.276;26.930;2023-02-14T02:24:32;53.17;;;32.60;;
10657;SDS011;5377;43.276;26.930;2023-02-14T02:36:23;53.67;;;34.20;;
10657;SDS011;5377;43.276;26.930;2023-02-14T02:39:05;53.37;;;31.87;;
10657;SDS011;5377;43.276;26.930;2023-02-14T02:41:47;52.37;;;33.37;;
10657;SDS011;5377;43.276;26.930;2023-02-14T02:44:26;59.07;;;36.97;;
10657;SDS011;5377;43.276;26.930;2023-02-14T02:47:04;57.17;;;34.50;;
10657;SDS011;5377;43.276;26.930;2023-02-14T02:49:40;57.53;;;35.20;;
10657;SDS011;5377;43.276;26.930;2023-02-14T02:52:30;53.47;;;35.00;;
10657;SDS011;5377;43.276;26.930;2023-02-14T02:55:23;55.77;;;34.30;;
10657;SDS011;5377;43.276;26.930;2023-02-14T02:58:15;55.30;;;32.90;;
10657;SDS011;5377;43.276;26.930;2023-02-14T03:00:42;54.37;;;33.33;;
10657;SDS011;5377;43.276;26.930;2023-02-14T03:03:10;60.30;;;37.30;;
10657;SDS011;5377;43.276;26.930;2023-02-14T03:05:56;52.73;;;32.77;;
10657;SDS011;5377;43.276;26.930;2023-02-14T03:08:25;53.93;;;34.27;;
10657;SDS011;5377;43.276;26.930;2023-02-14T03:10:52;59.83;;;37.27;;
10657;SDS011;5377;43.276;26.930;2023-02-14T03:13:24;55.83;;;37.10;;
10657;SDS011;5377;43.276;26.930;2023-02-14T03:16:18;54.40;;;34.30;;
10657;SDS011;5377;43.276;26.930;2023-02-14T03:18:54;60.63;;;35.20;;
10657;SDS011;5377;43.276;26.930;2023-02-14T03:22:13;62.40;;;38.27;;
10657;SDS011;5377;43.276;26.930;2023-02-14T03:24:50;67.43;;;37.77;;
10657;SDS011;5377;43.276;26.930;2023-02-14T03:27:24;63.47;;;38.90;;
10657;SDS011;5377;43.276;26.930;2023-02-14T03:29:56;60.40;;;37.10;;
10657;SDS011;5377;43.276;26.930;2023-02-14T03:32:39;58.93;;;35.97;;
10657;SDS011;5377;43.276;26.930;2023-02-14T03:35:11;50.90;;;33.23;;
10657;SDS011;5377;43.276;26.930;2023-02-14T03:37:45;59.63;;;37.17;;
10657;SDS011;5377;43.276;26.930;2023-02-14T03:40:18;57.10;;;33.40;;
10657;SDS011;5377;43.276;26.930;2023-02-14T03:42:49;59.80;;;33.93;;
10657;SDS011;5377;43.276;26.930;2023-02-14T03:45:21;59.33;;;34.27;;
10657;SDS011;5377;43.276;26.930;2023-02-14T03:47:53;55.70;;;33.67;;
10657;SDS011;5377;43.276;26.930;2023-02-14T03:50:24;59.93;;;36.03;;
10657;SDS011;5377;43.276;26.930;2023-02-14T03:52:53;68.90;;;39.37;;
10657;SDS011;5377;43.276;26.930;2023-02-14T03:55:26;65.03;;;36.93;;
10657;SDS011;5377;43.276;26.930;2023-02-14T03:58:00;57.27;;;35.40;;
10657;SDS011;5377;43.276;26.930;2023-02-14T04:00:32;60.50;;;33.40;;
10657;SDS011;5377;43.276;26.930;2023-02-14T04:03:05;59.57;;;35.53;;
10657;SDS011;5377;43.276;26.930;2023-02-14T04:05:35;68.47;;;39.63;;
10657;SDS011;5377;43.276;26.930;2023-02-14T04:08:08;59.47;;;37.60;;
10657;SDS011;5377;43.276;26.930;2023-02-14T04:10:38;65.43;;;37.37;;
10657;SDS011;5377;43.276;26.930;2023-02-14T04:13:07;60.60;;;36.70;;
10657;SDS011;5377;43.276;26.930;2023-02-14T04:15:34;51.63;;;31.43;;
10657;SDS011;5377;43.276;26.930;2023-02-14T04:18:01;55.53;;;34.47;;
10657;SDS011;5377;43.276;26.930;2023-02-14T04:20:45;52.27;;;29.73;;
10657;SDS011;5377;43.276;26.930;2023-02-14T04:23:12;54.47;;;32.30;;
10657;SDS011;5377;43.276;26.930;2023-02-14T04:25:40;51.53;;;30.30;;
10657;SDS011;5377;43.276;26.930;2023-02-14T04:28:07;63.10;;;36.43;;
10657;SDS011;5377;43.276;26.930;2023-02-14T04:30:34;55.47;;;33.27;;
10657;SDS011;5377;43.276;26.930;2023-02-14T04:33:01;83.63;;;47.97;;
10657;SDS011;5377;43.276;26.930;2023-02-14T04:35:29;59.20;;;33.20;;
10657;SDS011;5377;43.276;26.930;2023-02-14T04:37:56;62.93;;;37.27;;
10657;SDS011;5377;43.276;26.930;2023-02-14T04:40:22;46.50;;;28.33;;
10657;SDS011;5377;43.276;26.930;2023-02-14T04:42:51;54.63;;;32.43;;
10657;SDS011;5377;43.276;26.930;2023-02-14T04:45:18;54.50;;;32.57;;
10657;SDS011;5377;43.276;26.930;2023-02-14T04:47:44;53.73;;;29.43;;
10657;SDS011;5377;43.276;26.930;2023-02-14T04:50:11;53.47;;;31.70;;
10657;SDS011;5377;43.276;26.930;2023-02-14T04:52:38;50.93;;;30.30;;
10657;SDS011;5377;43.276;26.930;2023-02-14T04:55:06;49.07;;;30.33;;
10657;SDS011;5377;43.276;26.930;2023-02-14T04:57:34;48.07;;;29.40;;
10657;SDS011;5377;43.276;26.930;2023-02-14T05:00:03;60.58;;;42.00;;
10657;SDS011;5377;43.276;26.930;2023-02-14T05:02:31;46.37;;;30.83;;
10657;SDS011;5377;43.276;26.930;2023-02-14T05:04:58;48.40;;;29.67;;
10657;SDS011;5377;43.276;26.930;2023-02-14T05:07:24;51.47;;;32.00;;
10657;SDS011;5377;43.276;26.930;2023-02-14T05:09:51;53.27;;;35.00;;
10657;SDS011;5377;43.276;26.930;2023-02-14T05:12:18;48.80;;;29.93;;
10657;SDS011;5377;43.276;26.930;2023-02-14T05:14:45;36.03;;;22.10;;
10657;SDS011;5377;43.276;26.930;2023-02-14T05:17:13;39.97;;;23.63;;
10657;SDS011;5377;43.276;26.930;2023-02-14T05:19:40;21.47;;;13.00;;
10657;SDS011;5377;43.276;26.930;2023-02-14T05:22:07;25.23;;;17.30;;
10657;SDS011;5377;43.276;26.930;2023-02-14T05:24:34;41.07;;;27.77;;
10657;SDS011;5377;43.276;26.930;2023-02-14T05:27:01;42.40;;;26.90;;
10657;SDS011;5377;43.276;26.930;2023-02-14T05:29:28;39.17;;;24.87;;
10657;SDS011;5377;43.276;26.930;2023-02-14T05:31:55;32.07;;;20.23;;
10657;SDS011;5377;43.276;26.930;2023-02-14T05:34:23;29.40;;;18.17;;
10657;SDS011;5377;43.276;26.930;2023-02-14T05:36:50;23.60;;;15.03;;
10657;SDS011;5377;43.276;26.930;2023-02-14T05:39:18;29.40;;;19.17;;
10657;SDS011;5377;43.276;26.930;2023-02-14T05:41:45;43.23;;;27.67;;
10657;SDS011;5377;43.276;26.930;2023-02-14T05:44:11;43.08;;;32.42;;
10657;SDS011;5377;43.276;26.930;2023-02-14T05:46:38;31.20;;;20.20;;
10657;SDS011;5377;43.276;26.930;2023-02-14T05:49:05;31.03;;;20.23;;
10657;SDS011;5377;43.276;26.930;2023-02-14T05:51:33;26.70;;;18.30;;
10657;SDS011;5377;43.276;26.930;2023-02-14T05:54:00;27.37;;;18.73;;
10657;SDS011;5377;43.276;26.930;2023-02-14T05:56:27;30.67;;;19.87;;
10657;SDS011;5377;43.276;26.930;2023-02-14T05:58:53;20.00;;;13.23;;
10657;SDS011;5377;43.276;26.930;2023-02-14T06:01:20;29.07;;;19.20;;
10657;SDS011;5377;43.276;26.930;2023-02-14T06:03:47;27.37;;;18.53;;
10657;SDS011;5377;43.276;26.930;2023-02-14T06:06:14;26.73;;;19.13;;
10657;SDS011;5377;43.276;26.930;2023-02-14T06:08:42;25.50;;;16.23;;
10657;SDS011;5377;43.276;26.930;2023-02-14T06:11:09;26.63;;;18.27;;
10657;SDS011;5377;43.276;26.930;2023-02-14T06:13:36;19.73;;;12.87;;
10657;SDS011;5377;43.276;26.930;2023-02-14T06:16:05;23.53;;;16.57;;
10657;SDS011;5377;43.276;26.930;2023-02-14T06:18:32;23.30;;;14.53;;
10657;SDS011;5377;43.276;26.930;2023-02-14T06:20:59;29.43;;;18.47;;
10657;SDS011;5377;43.276;26.930;2023-02-14T06:23:26;23.87;;;14.27;;
10657;SDS011;5377;43.276;26.930;2023-02-14T06:25:54;26.57;;;17.10;;
10657;SDS011;5377;43.276;26.930;2023-02-14T06:28:21;24.53;;;16.53;;
10657;SDS011;5377;43.276;26.930;2023-02-14T06:30:48;26.33;;;17.40;;
10657;SDS011;5377;43.276;26.930;2023-02-14T06:33:14;19.10;;;12.60;;
10657;SDS011;5377;43.276;26.930;2023-02-14T06:35:41;24.53;;;16.33;;
10657;SDS011;5377;43.276;26.930;2023-02-14T06:38:08;28.97;;;19.43;;
10657;SDS011;5377;43.276;26.930;2023-02-14T06:40:35;29.00;;;16.30;;
10657;SDS011;5377;43.276;26.930;2023-02-14T06:43:03;30.87;;;20.03;;
10657;SDS011;5377;43.276;26.930;2023-02-14T06:45:30;27.40;;;17.80;;
10657;SDS011;5377;43.276;26.930;2023-02-14T06:47:56;24.67;;;15.17;;
10657;SDS011;5377;43.276;26.930;2023-02-14T06:50:24;19.33;;;12.37;;
10657;SDS011;5377;43.276;26.930;2023-02-14T06:52:50;21.70;;;16.33;;
10657;SDS011;5377;43.276;26.930;2023-02-14T06:55:17;23.93;;;14.77;;
10657;SDS011;5377;43.276;26.930;2023-02-14T06:57:44;23.67;;;15.87;;
10657;SDS011;5377;43.276;26.930;2023-02-14T07:00:13;28.57;;;20.70;;
10657;SDS011;5377;43.276;26.930;2023-02-14T07:02:40;28.37;;;19.47;;
10657;SDS011;5377;43.276;26.930;2023-02-14T07:05:07;25.77;;;17.63;;
10657;SDS011;5377;43.276;26.930;2023-02-14T07:07:34;27.10;;;18.67;;
10657;SDS011;5377;43.276;26.930;2023-02-14T07:10:01;23.60;;;15.70;;
10657;SDS011;5377;43.276;26.930;2023-02-14T07:12:28;26.13;;;16.30;;
10657;SDS011;5377;43.276;26.930;2023-02-14T07:14:54;26.97;;;17.47;;
10657;SDS011;5377;43.276;26.930;2023-02-14T07:17:23;24.60;;;15.17;;
10657;SDS011;5377;43.276;26.930;2023-02-14T07:19:49;22.07;;;15.03;;
10657;SDS011;5377;43.276;26.930;2023-02-14T07:22:16;22.57;;;14.23;;
10657;SDS011;5377;43.276;26.930;2023-02-14T07:24:43;25.77;;;18.80;;
10657;SDS011;5377;43.276;26.930;2023-02-14T07:27:10;23.03;;;14.97;;
10657;SDS011;5377;43.276;26.930;2023-02-14T07:29:37;25.30;;;17.77;;
10657;SDS011;5377;43.276;26.930;2023-02-14T07:32:04;24.93;;;17.77;;
10657;SDS011;5377;43.276;26.930;2023-02-14T07:34:32;21.40;;;15.77;;
10657;SDS011;5377;43.276;26.930;2023-02-14T07:36:59;21.33;;;13.37;;
10657;SDS011;5377;43.276;26.930;2023-02-14T07:39:26;19.17;;;13.57;;
10657;SDS011;5377;43.276;26.930;2023-02-14T07:41:53;22.97;;;14.93;;
10657;SDS011;5377;43.276;26.930;2023-02-14T07:44:20;21.83;;;13.03;;
10657;SDS011;5377;43.276;26.930;2023-02-14T07:46:47;21.60;;;15.30;;
10657;SDS011;5377;43.276;26.930;2023-02-14T07:49:14;23.07;;;17.53;;
10657;SDS011;5377;43.276;26.930;2023-02-14T07:51:42;21.33;;;16.20;;
10657;SDS011;5377;43.276;26.930;2023-02-14T07:54:09;28.33;;;18.57;;
10657;SDS011;5377;43.276;26.930;2023-02-14T07:56:36;16.77;;;13.27;;
10657;SDS011;5377;43.276;26.930;2023-02-14T07:59:03;24.67;;;18.97;;
10657;SDS011;5377;43.276;26.930;2023-02-14T08:01:29;23.63;;;16.70;;
10657;SDS011;5377;43.276;26.930;2023-02-14T08:03:56;14.00;;;11.90;;
10657;SDS011;5377;43.276;26.930;2023-02-14T08:06:23;21.53;;;15.70;;
10657;SDS011;5377;43.276;26.930;2023-02-14T08:08:53;19.77;;;13.70;;
10657;SDS011;5377;43.276;26.930;2023-02-14T08:11:20;34.80;;;22.07;;
10657;SDS011;5377;43.276;26.930;2023-02-14T08:14:04;23.20;;;17.03;;
10657;SDS011;5377;43.276;26.930;2023-02-14T08:16:31;20.83;;;14.73;;
10657;SDS011;5377;43.276;26.930;2023-02-14T08:18:58;22.37;;;16.67;;
10657;SDS011;5377;43.276;26.930;2023-02-14T08:21:26;26.90;;;15.80;;
10657;SDS011;5377;43.276;26.930;2023-02-14T08:23:55;27.37;;;20.10;;
10657;SDS011;5377;43.276;26.930;2023-02-14T08:26:22;20.07;;;14.87;;
10657;SDS011;5377;43.276;26.930;2023-02-14T08:28:49;29.77;;;17.53;;
10657;SDS011;5377;43.276;26.930;2023-02-14T08:31:20;25.63;;;16.60;;
10657;SDS011;5377;43.276;26.930;2023-02-14T08:33:49;22.37;;;16.13;;
10657;SDS011;5377;43.276;26.930;2023-02-14T08:36:15;24.43;;;18.17;;
10657;SDS011;5377;43.276;26.930;2023-02-14T08:38:42;20.53;;;14.93;;
10657;SDS011;5377;43.276;26.930;2023-02-14T08:41:13;24.20;;;17.50;;
10657;SDS011;5377;43.276;26.930;2023-02-14T08:43:40;27.80;;;20.33;;
10657;SDS011;5377;43.276;26.930;2023-02-14T08:46:06;21.00;;;14.27;;
10657;SDS011;5377;43.276;26.930;2023-02-14T08:48:33;21.20;;;15.87;;
10657;SDS011;5377;43.276;26.930;2023-02-14T08:51:03;25.90;;;17.80;;
10657;SDS011;5377;43.276;26.930;2023-02-14T08:53:30;26.80;;;18.37;;
10657;SDS011;5377;43.276;26.930;2023-02-14T08:56:00;34.90;;;20.63;;
10657;SDS011;5377;43.276;26.930;2023-02-14T08:58:29;26.77;;;18.57;;
10657;SDS011;5377;43.276;26.930;2023-02-14T09:00:56;25.50;;;18.85;;
10657;SDS011;5377;43.276;26.930;2023-02-14T09:03:23;23.95;;;18.38;;
10657;SDS011;5377;43.276;26.930;2023-02-14T09:05:50;21.30;;;18.30;;
10657;SDS011;5377;43.276;26.930;2023-02-14T09:08:17;30.40;;;20.65;;
10657;SDS011;5377;43.276;26.930;2023-02-14T09:10:43;25.52;;;18.80;;
10657;SDS011;5377;43.276;26.930;2023-02-14T09:13:10;31.13;;;21.38;;
10657;SDS011;5377;43.276;26.930;2023-02-14T09:15:38;25.58;;;19.65;;
10657;SDS011;5377;43.276;26.930;2023-02-14T09:18:05;31.97;;;19.50;;
10657;SDS011;5377;43.276;26.930;2023-02-14T09:20:32;27.08;;;20.20;;
10657;SDS011;5377;43.276;26.930;2023-02-14T09:22:59;28.95;;;19.63;;
10657;SDS011;5377;43.276;26.930;2023-02-14T09:25:25;24.40;;;19.63;;
10657;SDS011;5377;43.276;26.930;2023-02-14T09:27:52;25.23;;;20.52;;
10657;SDS011;5377;43.276;26.930;2023-02-14T09:30:19;23.02;;;18.70;;
10657;SDS011;5377;43.276;26.930;2023-02-14T09:32:48;22.50;;;19.75;;
10657;SDS011;5377;43.276;26.930;2023-02-14T09:35:16;22.27;;;18.98;;
10657;SDS011;5377;43.276;26.930;2023-02-14T09:37:43;21.73;;;17.52;;
10657;SDS011;5377;43.276;26.930;2023-02-14T09:40:28;20.13;;;16.67;;
10657;SDS011;5377;43.276;26.930;2023-02-14T09:43:02;21.20;;;17.30;;
10657;SDS011;5377;43.276;26.930;2023-02-14T09:45:35;24.05;;;17.63;;
10657;SDS011;5377;43.276;26.930;2023-02-14T09:48:06;21.70;;;15.82;;
10657;SDS011;5377;43.276;26.930;2023-02-14T09:50:41;23.58;;;17.45;;
10657;SDS011;5377;43.276;26.930;2023-02-14T09:53:14;27.38;;;18.90;;
10657;SDS011;5377;43.276;26.930;2023-02-14T09:55:48;25.05;;;19.25;;
10657;SDS011;5377;43.276;26.930;2023-02-14T09:58:20;24.77;;;18.55;;
10657;SDS011;5377;43.276;26.930;2023-02-14T10:00:51;22.13;;;17.13;;
10657;SDS011;5377;43.276;26.930;2023-02-14T10:06:29;22.20;;;18.27;;
10657;SDS011;5377;43.276;26.930;2023-02-14T10:09:06;25.88;;;21.30;;
10657;SDS011;5377;43.276;26.930;2023-02-14T10:11:40;20.38;;;17.42;;
10657;SDS011;5377;43.276;26.930;2023-02-14T10:14:11;23.95;;;17.67;;
10657;SDS011;5377;43.276;26.930;2023-02-14T10:16:43;17.42;;;14.38;;
10657;SDS011;5377;43.276;26.930;2023-02-14T10:19:16;16.77;;;14.27;;
10657;SDS011;5377;43.276;26.930;2023-02-14T10:21:47;17.48;;;15.52;;
10657;SDS011;5377;43.276;26.930;2023-02-14T10:24:20;20.88;;;15.88;;
10657;SDS011;5377;43.276;26.930;2023-02-14T10:26:50;20.90;;;16.17;;
10657;SDS011;5377;43.276;26.930;2023-02-14T10:29:21;20.55;;;16.40;;
10657;SDS011;5377;43.276;26.930;2023-02-14T10:31:50;24.08;;;16.55;;
10657;SDS011;5377;43.276;26.930;2023-02-14T10:34:25;19.85;;;14.32;;
10657;SDS011;5377;43.276;26.930;2023-02-14T10:40:04;16.73;;;15.02;;
10657;SDS011;5377;43.276;26.930;2023-02-14T10:42:49;20.92;;;16.85;;
10657;SDS011;5377;43.276;26.930;2023-02-14T10:45:26;17.05;;;15.32;;
10657;SDS011;5377;43.276;26.930;2023-02-14T10:47:59;14.20;;;12.70;;
10657;SDS011;5377;43.276;26.930;2023-02-14T10:50:37;14.70;;;12.70;;
10657;SDS011;5377;43.276;26.930;2023-02-14T10:53:11;15.10;;;12.50;;
10657;SDS011;5377;43.276;26.930;2023-02-14T10:55:46;16.00;;;12.65;;
10657;SDS011;5377;43.276;26.930;2023-02-14T10:58:19;13.23;;;11.20;;
10657;SDS011;5377;43.276;26.930;2023-02-14T11:00:52;17.55;;;13.68;;
10657;SDS011;5377;43.276;26.930;2023-02-14T11:03:23;15.77;;;13.00;;
10657;SDS011;5377;43.276;26.930;2023-02-14T11:05:54;20.45;;;13.20;;
10657;SDS011;5377;43.276;26.930;2023-02-14T11:08:23;16.42;;;13.20;;
10657;SDS011;5377;43.276;26.930;2023-02-14T11:10:51;16.50;;;13.07;;
10657;SDS011;5377;43.276;26.930;2023-02-14T11:13:26;15.23;;;13.27;;
10657;SDS011;5377;43.276;26.930;2023-02-14T11:15:58;15.10;;;13.55;;
10657;SDS011;5377;43.276;26.930;2023-02-14T11:18:27;17.95;;;13.57;;
10657;SDS011;5377;43.276;26.930;2023-02-14T11:21:02;14.63;;;13.13;;
10657;SDS011;5377;43.276;26.930;2023-02-14T11:23:32;14.52;;;13.07;;
10657;SDS011;5377;43.276;26.930;2023-02-14T11:26:00;14.10;;;12.13;;
10657;SDS011;5377;43.276;26.930;2023-02-14T11:28:28;14.98;;;13.18;;
10657;SDS011;5377;43.276;26.930;2023-02-14T11:30:55;13.55;;;12.15;;
10657;SDS011;5377;43.276;26.930;2023-02-14T11:33:33;14.07;;;10.85;;
10657;SDS011;5377;43.276;26.930;2023-02-14T11:36:04;14.07;;;10.27;;
10657;SDS011;5377;43.276;26.930;2023-02-14T11:38:37;14.43;;;11.52;;
10657;SDS011;5377;43.276;26.930;2023-02-14T11:41:05;13.70;;;11.48;;
10657;SDS011;5377;43.276;26.930;2023-02-14T11:43:34;21.38;;;14.13;;
10657;SDS011;5377;43.276;26.930;2023-02-14T11:46:04;14.20;;;12.43;;
10657;SDS011;5377;43.276;26.930;2023-02-14T11:48:33;15.55;;;12.80;;
10657;SDS011;5377;43.276;26.930;2023-02-14T11:51:00;15.95;;;13.48;;
10657;SDS011;5377;43.276;26.930;2023-02-14T11:53:33;23.35;;;15.68;;
10657;SDS011;5377;43.276;26.930;2023-02-14T11:56:05;14.52;;;10.75;;
10657;SDS011;5377;43.276;26.930;2023-02-14T11:58:32;16.10;;;12.88;;
10657;SDS011;5377;43.276;26.930;2023-02-14T12:01:03;18.83;;;11.57;;
10657;SDS011;5377;43.276;26.930;2023-02-14T12:03:32;17.80;;;11.35;;
10657;SDS011;5377;43.276;26.930;2023-02-14T12:06:02;17.17;;;12.88;;
10657;SDS011;5377;43.276;26.930;2023-02-14T12:08:30;20.73;;;12.63;;
10657;SDS011;5377;43.276;26.930;2023-02-14T12:11:02;13.10;;;8.95;;
10657;SDS011;5377;43.276;26.930;2023-02-14T12:13:30;15.98;;;9.80;;
10657;SDS011;5377;43.276;26.930;2023-02-14T12:15:58;14.68;;;11.85;;
10657;SDS011;5377;43.276;26.930;2023-02-14T12:18:41;15.45;;;11.32;;
10657;SDS011;5377;43.276;26.930;2023-02-14T12:21:22;12.18;;;10.95;;
10657;SDS011;5377;43.276;26.930;2023-02-14T12:24:02;15.63;;;10.88;;
10657;SDS011;5377;43.276;26.930;2023-02-14T12:26:39;12.18;;;9.85;;
10657;SDS011;5377;43.276;26.930;2023-02-14T12:29:14;13.45;;;11.90;;
10657;SDS011;5377;43.276;26.930;2023-02-14T12:31:46;19.63;;;13.57;;
10657;SDS011;5377;43.276;26.930;2023-02-14T12:34:14;13.23;;;10.77;;
10657;SDS011;5377;43.276;26.930;2023-02-14T12:39:41;21.92;;;15.23;;
10657;SDS011;5377;43.276;26.930;2023-02-14T12:42:24;14.85;;;12.10;;
10657;SDS011;5377;43.276;26.930;2023-02-14T12:45:01;16.55;;;14.85;;
10657;SDS011;5377;43.276;26.930;2023-02-14T12:47:35;16.75;;;14.63;;
10657;SDS011;5377;43.276;26.930;2023-02-14T12:50:14;18.65;;;14.35;;
10657;SDS011;5377;43.276;26.930;2023-02-14T12:52:52;23.98;;;19.83;;
10657;SDS011;5377;43.276;26.930;2023-02-14T12:55:33;16.83;;;13.88;;
10657;SDS011;5377;43.276;26.930;2023-02-14T12:58:08;29.45;;;19.60;;
10657;SDS011;5377;43.276;26.930;2023-02-14T13:00:43;19.92;;;16.25;;
10657;SDS011;5377;43.276;26.930;2023-02-14T13:03:25;32.75;;;28.88;;
10657;SDS011;5377;43.276;26.930;2023-02-14T13:06:09;24.58;;;18.67;;
10657;SDS011;5377;43.276;26.930;2023-02-14T13:08:47;25.27;;;20.55;;
10657;SDS011;5377;43.276;26.930;2023-02-14T13:11:28;23.42;;;19.48;;
10657;SDS011;5377;43.276;26.930;2023-02-14T13:14:04;26.25;;;21.13;;
10657;SDS011;5377;43.276;26.930;2023-02-14T13:16:42;25.00;;;20.42;;
10657;SDS011;5377;43.276;26.930;2023-02-14T13:19:15;28.02;;;21.08;;
10657;SDS011;5377;43.276;26.930;2023-02-14T13:21:56;24.25;;;19.48;;
10657;SDS011;5377;43.276;26.930;2023-02-14T13:24:27;20.05;;;16.50;;
10657;SDS011;5377;43.276;26.930;2023-02-14T13:26:57;18.45;;;16.55;;
10657;SDS011;5377;43.276;26.930;2023-02-14T13:29:28;22.20;;;16.85;;
10657;SDS011;5377;43.276;26.930;2023-02-14T13:32:03;22.05;;;17.98;;
10657;SDS011;5377;43.276;26.930;2023-02-14T13:34:31;20.92;;;18.52;;
10657;SDS011;5377;43.276;26.930;2023-02-14T13:37:02;21.98;;;16.90;;
10657;SDS011;5377;43.276;26.930;2023-02-14T13:39:34;16.77;;;15.07;;
10657;SDS011;5377;43.276;26.930;2023-02-14T13:42:03;16.20;;;13.82;;
10657;SDS011;5377;43.276;26.930;2023-02-14T13:44:41;19.50;;;16.05;;
10657;SDS011;5377;43.276;26.930;2023-02-14T13:47:15;24.27;;;17.25;;
10657;SDS011;5377;43.276;26.930;2023-02-14T13:49:45;18.27;;;16.38;;
10657;SDS011;5377;43.276;26.930;2023-02-14T13:55:13;23.38;;;18.42;;
10657;SDS011;5377;43.276;26.930;2023-02-14T13:57:43;22.40;;;18.88;;
10657;SDS011;5377;43.276;26.930;2023-02-14T14:03:05;21.58;;;17.05;;
10657;SDS011;5377;43.276;26.930;2023-02-14T14:05:47;22.60;;;18.55;;
10657;SDS011;5377;43.276;26.930;2023-02-14T14:08:45;27.10;;;19.40;;
10657;SDS011;5377;43.276;26.930;2023-02-14T14:14:25;27.00;;;19.25;;
10657;SDS011;5377;43.276;26.930;2023-02-14T14:17:03;27.80;;;18.88;;
10657;SDS011;5377;43.276;26.930;2023-02-14T14:19:42;22.50;;;19.73;;
10657;SDS011;5377;43.276;26.930;2023-02-14T14:22:09;22.35;;;18.63;;
10657;SDS011;5377;43.276;26.930;2023-02-14T14:24:40;22.95;;;19.38;;
10657;SDS011;5377;43.276;26.930;2023-02-14T14:27:19;20.10;;;17.95;;
10657;SDS011;5377;43.276;26.930;2023-02-14T14:29:49;21.02;;;17.75;;
10657;SDS011;5377;43.276;26.930;2023-02-14T14:32:23;26.50;;;19.95;;
10657;SDS011;5377;43.276;26.930;2023-02-14T14:34:52;23.23;;;20.70;;
10657;SDS011;5377;43.276;26.930;2023-02-14T14:37:20;22.83;;;16.63;;
10657;SDS011;5377;43.276;26.930;2023-02-14T14:39:50;22.95;;;18.75;;
10657;SDS011;5377;43.276;26.930;2023-02-14T14:42:18;23.00;;;19.17;;
10657;SDS011;5377;43.276;26.930;2023-02-14T14:44:48;24.60;;;19.23;;
10657;SDS011;5377;43.276;26.930;2023-02-14T14:47:19;22.40;;;18.33;;
10657;SDS011;5377;43.276;26.930;2023-02-14T14:49:48;22.07;;;17.80;;
10657;SDS011;5377;43.276;26.930;2023-02-14T14:52:28;28.57;;;22.27;;
10657;SDS011;5377;43.276;26.930;2023-02-14T14:54:58;27.00;;;20.47;;
10657;SDS011;5377;43.276;26.930;2023-02-14T14:57:26;21.73;;;19.40;;
10657;SDS011;5377;43.276;26.930;2023-02-14T15:05:33;22.75;;;17.95;;
10657;SDS011;5377;43.276;26.930;2023-02-14T15:08:15;28.83;;;19.25;;
10657;SDS011;5377;43.276;26.930;2023-02-14T15:10:46;26.35;;;20.25;;
10657;SDS011;5377;43.276;26.930;2023-02-14T15:13:16;24.50;;;21.55;;